sensor_id;sensor_type;location;lat;lon;timestamp;P1;P2;P0
28026;PMS5003;15344;52.342;-1.290;2023-02-26T00:01:34;4;4;
28026;PMS5003;15344;52.342;-1.290;2023-02-26T00:04:00;7;4;
28026;PMS5003;15344;52.342;-1.290;2023-02-26T00:06:25;5;5;
28026;PMS5003;15344;52.342;-1.290;2023-02-26T00:08:51;3;3;
28026;PMS5003;15344;52.342;-1.290;2023-02-26T00:11:17;7;4;
28026;PMS5003;15344;52.342;-1.290;2023-02-26T00:13:43;4;4;
28026;PMS5003;15344;52.342;-1.290;2023-02-26T00:16:12;8;4;
28026;PMS5003;15344;52.342;-1.290;2023-02-26T00:18:33;6;4;
28026;PMS5003;15344;52.342;-1.290;2023-02-26T00:20:59;7;5;
28026;PMS5003;15344;52.342;-1.290;2023-02-26T00:23:25;4;3;
28026;PMS5003;15344;52.342;-1.290;2023-02-26T00:25:50;5;3;
28026;PMS5003;15344;52.342;-1.290;2023-02-26T00:28:16;7;3;
28026;PMS5003;15344;52.342;-1.290;2023-02-26T00:30:42;5;5;
28026;PMS5003;15344;52.342;-1.290;2023-02-26T00:33:07;3;3;
28026;PMS5003;15344;52.342;-1.290;2023-02-26T00:35:33;6;4;
28026;PMS5003;15344;52.342;-1.290;2023-02-26T00:37:59;10;5;
28026;PMS5003;15344;52.342;-1.290;2023-02-26T00:40:27;9;5;
28026;PMS5003;15344;52.342;-1.290;2023-02-26T00:42:50;6;5;
28026;PMS5003;15344;52.342;-1.290;2023-02-26T00:45:15;10;7;
28026;PMS5003;15344;52.342;-1.290;2023-02-26T00:47:43;6;6;
28026;PMS5003;15344;52.342;-1.290;2023-02-26T00:50:10;7;4;
28026;PMS5003;15344;52.342;-1.290;2023-02-26T00:52:35;5;5;
28026;PMS5003;15344;52.342;-1.290;2023-02-26T00:54:58;6;5;
28026;PMS5003;15344;52.342;-1.290;2023-02-26T00:57:22;7;3;
28026;PMS5003;15344;52.342;-1.290;2023-02-26T00:59:48;11;7;
28026;PMS5003;15344;52.342;-1.290;2023-02-26T01:02:14;9;8;
28026;PMS5003;15344;52.342;-1.290;2023-02-26T01:04:40;5;4;
28026;PMS5003;15344;52.342;-1.290;2023-02-26T01:07:05;17;9;
28026;PMS5003;15344;52.342;-1.290;2023-02-26T01:09:33;9;7;
28026;PMS5003;15344;52.342;-1.290;2023-02-26T01:11:57;8;5;
28026;PMS5003;15344;52.342;-1.290;2023-02-26T01:14:22;7;7;
28026;PMS5003;15344;52.342;-1.290;2023-02-26T01:16:49;7;7;
28026;PMS5003;15344;52.342;-1.290;2023-02-26T01:19:14;12;6;
28026;PMS5003;15344;52.342;-1.290;2023-02-26T01:21:39;7;6;
28026;PMS5003;15344;52.342;-1.290;2023-02-26T01:24:04;6;5;
28026;PMS5003;15344;52.342;-1.290;2023-02-26T01:26:29;8;5;
28026;PMS5003;15344;52.342;-1.290;2023-02-26T01:28:55;9;6;
28026;PMS5003;15344;52.342;-1.290;2023-02-26T01:31:25;8;6;
28026;PMS5003;15344;52.342;-1.290;2023-02-26T01:33:46;8;7;
28026;PMS5003;15344;52.342;-1.290;2023-02-26T01:36:12;5;5;
28026;PMS5003;15344;52.342;-1.290;2023-02-26T01:38:38;10;7;
28026;PMS5003;15344;52.342;-1.290;2023-02-26T01:41:08;11;8;
28026;PMS5003;15344;52.342;-1.290;2023-02-26T01:43:31;9;5;
28026;PMS5003;15344;52.342;-1.290;2023-02-26T01:45:54;10;7;
28026;PMS5003;15344;52.342;-1.290;2023-02-26T01:48:21;5;4;
28026;PMS5003;15344;52.342;-1.290;2023-02-26T01:50:45;7;6;
28026;PMS5003;15344;52.342;-1.290;2023-02-26T01:53:15;6;6;
28026;PMS5003;15344;52.342;-1.290;2023-02-26T01:55:36;8;7;
28026;PMS5003;15344;52.342;-1.290;2023-02-26T01:58:01;7;6;
28026;PMS5003;15344;52.342;-1.290;2023-02-26T02:00:27;5;5;
28026;PMS5003;15344;52.342;-1.290;2023-02-26T02:02:52;7;6;
28026;PMS5003;15344;52.342;-1.290;2023-02-26T02:05:20;8;7;
28026;PMS5003;15344;52.342;-1.290;2023-02-26T02:07:43;6;5;
28026;PMS5003;15344;52.342;-1.290;2023-02-26T02:10:10;6;6;
28026;PMS5003;15344;52.342;-1.290;2023-02-26T02:12:37;8;6;
28026;PMS5003;15344;52.342;-1.290;2023-02-26T02:15:03;7;6;
28026;PMS5003;15344;52.342;-1.290;2023-02-26T02:17:28;12;5;
28026;PMS5003;15344;52.342;-1.290;2023-02-26T02:22:22;6;6;
28026;PMS5003;15344;52.342;-1.290;2023-02-26T02:24:45;9;6;
28026;PMS5003;15344;52.342;-1.290;2023-02-26T02:27:09;6;5;
28026;PMS5003;15344;52.342;-1.290;2023-02-26T02:31:59;5;4;
28026;PMS5003;15344;52.342;-1.290;2023-02-26T02:34:26;6;5;
28026;PMS5003;15344;52.342;-1.290;2023-02-26T02:36:52;5;5;
28026;PMS5003;15344;52.342;-1.290;2023-02-26T02:39:17;4;3;
28026;PMS5003;15344;52.342;-1.290;2023-02-26T02:41:43;13;5;
28026;PMS5003;15344;52.342;-1.290;2023-02-26T02:44:09;6;4;
28026;PMS5003;15344;52.342;-1.290;2023-02-26T02:46:34;6;5;
28026;PMS5003;15344;52.342;-1.290;2023-02-26T02:48:59;4;4;
28026;PMS5003;15344;52.342;-1.290;2023-02-26T02:51:25;4;4;
28026;PMS5003;15344;52.342;-1.290;2023-02-26T02:53:50;11;7;
28026;PMS5003;15344;52.342;-1.290;2023-02-26T02:56:16;5;4;
28026;PMS5003;15344;52.342;-1.290;2023-02-26T02:58:42;6;4;
28026;PMS5003;15344;52.342;-1.290;2023-02-26T03:01:08;3;3;
28026;PMS5003;15344;52.342;-1.290;2023-02-26T03:03:34;5;5;
28026;PMS5003;15344;52.342;-1.290;2023-02-26T03:05:58;6;4;
28026;PMS5003;15344;52.342;-1.290;2023-02-26T03:08:25;6;4;
28026;PMS5003;15344;52.342;-1.290;2023-02-26T03:10:49;8;4;
28026;PMS5003;15344;52.342;-1.290;2023-02-26T03:13:15;10;7;
28026;PMS5003;15344;52.342;-1.290;2023-02-26T03:15:44;6;6;
28026;PMS5003;15344;52.342;-1.290;2023-02-26T03:18:07;7;4;
28026;PMS5003;15344;52.342;-1.290;2023-02-26T03:20:33;7;5;
28026;PMS5003;15344;52.342;-1.290;2023-02-26T03:23:00;8;6;
28026;PMS5003;15344;52.342;-1.290;2023-02-26T03:25:23;10;5;
28026;PMS5003;15344;52.342;-1.290;2023-02-26T03:27:52;5;4;
28026;PMS5003;15344;52.342;-1.290;2023-02-26T03:30:14;8;5;
28026;PMS5003;15344;52.342;-1.290;2023-02-26T03:32:41;5;3;
28026;PMS5003;15344;52.342;-1.290;2023-02-26T03:35:07;7;3;
28026;PMS5003;15344;52.342;-1.290;2023-02-26T03:37:31;6;5;
28026;PMS5003;15344;52.342;-1.290;2023-02-26T03:39:57;5;3;
28026;PMS5003;15344;52.342;-1.290;2023-02-26T03:42:23;4;4;
28026;PMS5003;15344;52.342;-1.290;2023-02-26T03:44:48;5;3;
28026;PMS5003;15344;52.342;-1.290;2023-02-26T03:47:13;7;4;
28026;PMS5003;15344;52.342;-1.290;2023-02-26T03:49:40;10;6;
28026;PMS5003;15344;52.342;-1.290;2023-02-26T03:52:04;6;4;
28026;PMS5003;15344;52.342;-1.290;2023-02-26T03:54:31;6;5;
28026;PMS5003;15344;52.342;-1.290;2023-02-26T03:56:55;6;4;
28026;PMS5003;15344;52.342;-1.290;2023-02-26T03:59:21;5;4;
28026;PMS5003;15344;52.342;-1.290;2023-02-26T04:01:48;7;4;
28026;PMS5003;15344;52.342;-1.290;2023-02-26T04:04:14;6;4;
28026;PMS5003;15344;52.342;-1.290;2023-02-26T04:06:39;6;4;
28026;PMS5003;15344;52.342;-1.290;2023-02-26T04:09:04;5;4;
28026;PMS5003;15344;52.342;-1.290;2023-02-26T04:11:29;4;4;
28026;PMS5003;15344;52.342;-1.290;2023-02-26T04:13:55;5;4;
28026;PMS5003;15344;52.342;-1.290;2023-02-26T04:16:21;5;5;
28026;PMS5003;15344;52.342;-1.290;2023-02-26T04:18:46;7;4;
28026;PMS5003;15344;52.342;-1.290;2023-02-26T04:21:12;8;5;
28026;PMS5003;15344;52.342;-1.290;2023-02-26T04:23:37;7;4;
28026;PMS5003;15344;52.342;-1.290;2023-02-26T04:26:03;5;3;
28026;PMS5003;15344;52.342;-1.290;2023-02-26T04:28:29;4;4;
28026;PMS5003;15344;52.342;-1.290;2023-02-26T04:30:54;5;4;
28026;PMS5003;15344;52.342;-1.290;2023-02-26T04:33:20;4;4;
28026;PMS5003;15344;52.342;-1.290;2023-02-26T04:35:45;10;6;
28026;PMS5003;15344;52.342;-1.290;2023-02-26T04:38:11;11;7;
28026;PMS5003;15344;52.342;-1.290;2023-02-26T04:40:37;11;5;
28026;PMS5003;15344;52.342;-1.290;2023-02-26T04:43:03;4;3;
28026;PMS5003;15344;52.342;-1.290;2023-02-26T04:45:28;4;4;
28026;PMS5003;15344;52.342;-1.290;2023-02-26T04:47:54;5;5;
28026;PMS5003;15344;52.342;-1.290;2023-02-26T04:50:19;6;5;
28026;PMS5003;15344;52.342;-1.290;2023-02-26T04:52:45;4;4;
28026;PMS5003;15344;52.342;-1.290;2023-02-26T04:55:11;11;5;
28026;PMS5003;15344;52.342;-1.290;2023-02-26T04:57:36;6;4;
28026;PMS5003;15344;52.342;-1.290;2023-02-26T05:00:03;4;3;
28026;PMS5003;15344;52.342;-1.290;2023-02-26T05:02:28;6;3;
28026;PMS5003;15344;52.342;-1.290;2023-02-26T05:04:53;3;3;
28026;PMS5003;15344;52.342;-1.290;2023-02-26T05:07:19;5;4;
28026;PMS5003;15344;52.342;-1.290;2023-02-26T05:09:44;6;2;
28026;PMS5003;15344;52.342;-1.290;2023-02-26T05:12:10;5;2;
28026;PMS5003;15344;52.342;-1.290;2023-02-26T05:14:36;10;3;
28026;PMS5003;15344;52.342;-1.290;2023-02-26T05:17:01;5;4;
28026;PMS5003;15344;52.342;-1.290;2023-02-26T05:19:27;6;4;
28026;PMS5003;15344;52.342;-1.290;2023-02-26T05:21:53;5;2;
28026;PMS5003;15344;52.342;-1.290;2023-02-26T05:24:19;4;3;
28026;PMS5003;15344;52.342;-1.290;2023-02-26T05:26:44;2;2;
28026;PMS5003;15344;52.342;-1.290;2023-02-26T05:29:10;6;4;
28026;PMS5003;15344;52.342;-1.290;2023-02-26T05:31:36;5;2;
28026;PMS5003;15344;52.342;-1.290;2023-02-26T05:34:01;6;4;
28026;PMS5003;15344;52.342;-1.290;2023-02-26T05:36:26;4;3;
28026;PMS5003;15344;52.342;-1.290;2023-02-26T05:38:52;4;4;
28026;PMS5003;15344;52.342;-1.290;2023-02-26T05:41:18;3;3;
28026;PMS5003;15344;52.342;-1.290;2023-02-26T05:43:43;7;3;
28026;PMS5003;15344;52.342;-1.290;2023-02-26T05:46:09;5;2;
28026;PMS5003;15344;52.342;-1.290;2023-02-26T05:48:35;6;3;
28026;PMS5003;15344;52.342;-1.290;2023-02-26T05:51:01;5;2;
28026;PMS5003;15344;52.342;-1.290;2023-02-26T05:53:26;4;3;
28026;PMS5003;15344;52.342;-1.290;2023-02-26T05:55:52;4;4;
28026;PMS5003;15344;52.342;-1.290;2023-02-26T05:58:17;4;3;
28026;PMS5003;15344;52.342;-1.290;2023-02-26T06:00:43;8;3;
28026;PMS5003;15344;52.342;-1.290;2023-02-26T06:03:08;4;4;
28026;PMS5003;15344;52.342;-1.290;2023-02-26T06:05:34;5;3;
28026;PMS5003;15344;52.342;-1.290;2023-02-26T06:08:00;5;4;
28026;PMS5003;15344;52.342;-1.290;2023-02-26T06:10:25;3;2;
28026;PMS5003;15344;52.342;-1.290;2023-02-26T06:12:51;5;3;
28026;PMS5003;15344;52.342;-1.290;2023-02-26T06:15:16;8;4;
28026;PMS5003;15344;52.342;-1.290;2023-02-26T06:17:42;7;5;
28026;PMS5003;15344;52.342;-1.290;2023-02-26T06:20:08;7;4;
28026;PMS5003;15344;52.342;-1.290;2023-02-26T06:22:33;4;4;
28026;PMS5003;15344;52.342;-1.290;2023-02-26T06:24:59;6;4;
28026;PMS5003;15344;52.342;-1.290;2023-02-26T06:27:24;8;4;
28026;PMS5003;15344;52.342;-1.290;2023-02-26T06:29:50;6;4;
28026;PMS5003;15344;52.342;-1.290;2023-02-26T06:32:16;6;5;
28026;PMS5003;15344;52.342;-1.290;2023-02-26T06:34:42;7;6;
28026;PMS5003;15344;52.342;-1.290;2023-02-26T06:37:07;4;4;
28026;PMS5003;15344;52.342;-1.290;2023-02-26T06:39:33;6;4;
28026;PMS5003;15344;52.342;-1.290;2023-02-26T06:41:58;5;4;
28026;PMS5003;15344;52.342;-1.290;2023-02-26T06:44:23;7;5;
28026;PMS5003;15344;52.342;-1.290;2023-02-26T06:46:49;10;4;
28026;PMS5003;15344;52.342;-1.290;2023-02-26T06:49:15;6;4;
28026;PMS5003;15344;52.342;-1.290;2023-02-26T06:51:40;8;6;
28026;PMS5003;15344;52.342;-1.290;2023-02-26T06:54:06;5;3;
28026;PMS5003;15344;52.342;-1.290;2023-02-26T06:56:32;8;3;
28026;PMS5003;15344;52.342;-1.290;2023-02-26T06:58:58;5;3;
28026;PMS5003;15344;52.342;-1.290;2023-02-26T07:01:23;9;5;
28026;PMS5003;15344;52.342;-1.290;2023-02-26T07:03:49;6;4;
28026;PMS5003;15344;52.342;-1.290;2023-02-26T07:06:14;5;4;
28026;PMS5003;15344;52.342;-1.290;2023-02-26T07:08:40;5;4;
28026;PMS5003;15344;52.342;-1.290;2023-02-26T07:11:06;6;3;
28026;PMS5003;15344;52.342;-1.290;2023-02-26T07:13:31;9;3;
28026;PMS5003;15344;52.342;-1.290;2023-02-26T07:15:57;5;4;
28026;PMS5003;15344;52.342;-1.290;2023-02-26T07:18:23;7;5;
28026;PMS5003;15344;52.342;-1.290;2023-02-26T07:20:49;6;3;
28026;PMS5003;15344;52.342;-1.290;2023-02-26T07:23:14;7;3;
28026;PMS5003;15344;52.342;-1.290;2023-02-26T07:25:40;2;2;
28026;PMS5003;15344;52.342;-1.290;2023-02-26T07:28:05;4;4;
28026;PMS5003;15344;52.342;-1.290;2023-02-26T07:30:31;6;5;
28026;PMS5003;15344;52.342;-1.290;2023-02-26T07:32:56;6;5;
28026;PMS5003;15344;52.342;-1.290;2023-02-26T07:35:22;10;3;
28026;PMS5003;15344;52.342;-1.290;2023-02-26T07:37:47;4;4;
28026;PMS5003;15344;52.342;-1.290;2023-02-26T07:40:13;3;3;
28026;PMS5003;15344;52.342;-1.290;2023-02-26T07:42:39;7;2;
28026;PMS5003;15344;52.342;-1.290;2023-02-26T07:45:05;7;4;
28026;PMS5003;15344;52.342;-1.290;2023-02-26T07:47:30;6;4;
28026;PMS5003;15344;52.342;-1.290;2023-02-26T07:49:56;11;5;
28026;PMS5003;15344;52.342;-1.290;2023-02-26T07:52:21;9;6;
28026;PMS5003;15344;52.342;-1.290;2023-02-26T07:54:47;3;3;
28026;PMS5003;15344;52.342;-1.290;2023-02-26T07:57:12;6;5;
28026;PMS5003;15344;52.342;-1.290;2023-02-26T07:59:38;6;5;
28026;PMS5003;15344;52.342;-1.290;2023-02-26T08:02:04;6;3;
28026;PMS5003;15344;52.342;-1.290;2023-02-26T08:04:29;5;3;
28026;PMS5003;15344;52.342;-1.290;2023-02-26T08:06:54;4;3;
28026;PMS5003;15344;52.342;-1.290;2023-02-26T08:09:20;3;2;
28026;PMS5003;15344;52.342;-1.290;2023-02-26T08:11:46;6;2;
28026;PMS5003;15344;52.342;-1.290;2023-02-26T08:14:12;4;3;
28026;PMS5003;15344;52.342;-1.290;2023-02-26T08:16:37;2;2;
28026;PMS5003;15344;52.342;-1.290;2023-02-26T08:19:03;2;2;
28026;PMS5003;15344;52.342;-1.290;2023-02-26T08:21:28;6;3;
28026;PMS5003;15344;52.342;-1.290;2023-02-26T08:23:54;4;3;
28026;PMS5003;15344;52.342;-1.290;2023-02-26T08:26:19;6;4;
28026;PMS5003;15344;52.342;-1.290;2023-02-26T08:28:45;4;2;
28026;PMS5003;15344;52.342;-1.290;2023-02-26T08:31:11;4;3;
28026;PMS5003;15344;52.342;-1.290;2023-02-26T08:33:36;6;3;
28026;PMS5003;15344;52.342;-1.290;2023-02-26T08:36:02;1;1;
28026;PMS5003;15344;52.342;-1.290;2023-02-26T08:38:28;5;2;
28026;PMS5003;15344;52.342;-1.290;2023-02-26T08:40:53;5;3;
28026;PMS5003;15344;52.342;-1.290;2023-02-26T08:43:18;2;2;
28026;PMS5003;15344;52.342;-1.290;2023-02-26T08:45:44;4;2;
28026;PMS5003;15344;52.342;-1.290;2023-02-26T08:48:09;7;5;
28026;PMS5003;15344;52.342;-1.290;2023-02-26T08:50:35;4;2;
28026;PMS5003;15344;52.342;-1.290;2023-02-26T08:53:01;3;3;
28026;PMS5003;15344;52.342;-1.290;2023-02-26T08:55:26;5;3;
28026;PMS5003;15344;52.342;-1.290;2023-02-26T08:57:52;4;3;
28026;PMS5003;15344;52.342;-1.290;2023-02-26T09:00:18;2;2;
28026;PMS5003;15344;52.342;-1.290;2023-02-26T09:02:43;7;3;
28026;PMS5003;15344;52.342;-1.290;2023-02-26T09:05:08;8;4;
28026;PMS5003;15344;52.342;-1.290;2023-02-26T09:07:34;3;2;
28026;PMS5003;15344;52.342;-1.290;2023-02-26T09:09:59;5;3;
28026;PMS5003;15344;52.342;-1.290;2023-02-26T09:12:25;4;2;
28026;PMS5003;15344;52.342;-1.290;2023-02-26T09:14:50;11;3;
28026;PMS5003;15344;52.342;-1.290;2023-02-26T09:17:16;5;4;
28026;PMS5003;15344;52.342;-1.290;2023-02-26T09:19:41;4;2;
28026;PMS5003;15344;52.342;-1.290;2023-02-26T09:22:07;3;3;
28026;PMS5003;15344;52.342;-1.290;2023-02-26T09:24:32;4;3;
28026;PMS5003;15344;52.342;-1.290;2023-02-26T09:26:58;7;2;
28026;PMS5003;15344;52.342;-1.290;2023-02-26T09:29:23;2;2;
28026;PMS5003;15344;52.342;-1.290;2023-02-26T09:31:49;7;2;
28026;PMS5003;15344;52.342;-1.290;2023-02-26T09:34:14;4;3;
28026;PMS5003;15344;52.342;-1.290;2023-02-26T09:36:40;6;3;
28026;PMS5003;15344;52.342;-1.290;2023-02-26T09:39:05;7;3;
28026;PMS5003;15344;52.342;-1.290;2023-02-26T09:41:31;2;2;
28026;PMS5003;15344;52.342;-1.290;2023-02-26T09:44:00;4;2;
28026;PMS5003;15344;52.342;-1.290;2023-02-26T09:46:25;6;3;
28026;PMS5003;15344;52.342;-1.290;2023-02-26T09:48:47;3;3;
28026;PMS5003;15344;52.342;-1.290;2023-02-26T09:51:14;5;2;
28026;PMS5003;15344;52.342;-1.290;2023-02-26T09:53:38;2;2;
28026;PMS5003;15344;52.342;-1.290;2023-02-26T09:56:04;8;4;
28026;PMS5003;15344;52.342;-1.290;2023-02-26T09:58:30;4;2;
28026;PMS5003;15344;52.342;-1.290;2023-02-26T10:00:57;2;2;
28026;PMS5003;15344;52.342;-1.290;2023-02-26T10:03:23;5;2;
28026;PMS5003;15344;52.342;-1.290;2023-02-26T10:05:48;5;3;
28026;PMS5003;15344;52.342;-1.290;2023-02-26T10:08:13;7;3;
28026;PMS5003;15344;52.342;-1.290;2023-02-26T10:10:37;4;2;
28026;PMS5003;15344;52.342;-1.290;2023-02-26T10:13:02;1;1;
28026;PMS5003;15344;52.342;-1.290;2023-02-26T10:15:28;5;3;
28026;PMS5003;15344;52.342;-1.290;2023-02-26T10:17:56;3;3;
28026;PMS5003;15344;52.342;-1.290;2023-02-26T10:20:18;1;1;
28026;PMS5003;15344;52.342;-1.290;2023-02-26T10:22:44;2;2;
28026;PMS5003;15344;52.342;-1.290;2023-02-26T10:25:10;3;3;
28026;PMS5003;15344;52.342;-1.290;2023-02-26T10:27:41;6;4;
28026;PMS5003;15344;52.342;-1.290;2023-02-26T10:30:02;9;4;
28026;PMS5003;15344;52.342;-1.290;2023-02-26T10:32:27;7;2;
28026;PMS5003;15344;52.342;-1.290;2023-02-26T10:34:51;5;3;
28026;PMS5003;15344;52.342;-1.290;2023-02-26T10:37:17;4;2;
28026;PMS5003;15344;52.342;-1.290;2023-02-26T10:39:42;4;2;
28026;PMS5003;15344;52.342;-1.290;2023-02-26T10:42:10;6;3;
28026;PMS5003;15344;52.342;-1.290;2023-02-26T10:44:34;3;2;
28026;PMS5003;15344;52.342;-1.290;2023-02-26T10:47:00;7;3;
28026;PMS5003;15344;52.342;-1.290;2023-02-26T10:49:30;5;3;
28026;PMS5003;15344;52.342;-1.290;2023-02-26T10:51:49;3;1;
28026;PMS5003;15344;52.342;-1.290;2023-02-26T10:54:15;3;2;
28026;PMS5003;15344;52.342;-1.290;2023-02-26T10:56:40;1;1;
28026;PMS5003;15344;52.342;-1.290;2023-02-26T10:59:05;4;1;
28026;PMS5003;15344;52.342;-1.290;2023-02-26T11:01:31;1;1;
28026;PMS5003;15344;52.342;-1.290;2023-02-26T11:03:57;2;1;
28026;PMS5003;15344;52.342;-1.290;2023-02-26T11:06:23;6;2;
28026;PMS5003;15344;52.342;-1.290;2023-02-26T11:08:48;4;2;
28026;PMS5003;15344;52.342;-1.290;2023-02-26T11:13:38;6;2;
28026;PMS5003;15344;52.342;-1.290;2023-02-26T11:16:04;4;2;
28026;PMS5003;15344;52.342;-1.290;2023-02-26T11:18:30;1;1;
28026;PMS5003;15344;52.342;-1.290;2023-02-26T11:20:55;2;0;
28026;PMS5003;15344;52.342;-1.290;2023-02-26T11:23:20;1;1;
28026;PMS5003;15344;52.342;-1.290;2023-02-26T11:25:45;2;2;
28026;PMS5003;15344;52.342;-1.290;2023-02-26T11:30:37;3;1;
28026;PMS5003;15344;52.342;-1.290;2023-02-26T11:33:05;1;1;
28026;PMS5003;15344;52.342;-1.290;2023-02-26T11:35:27;6;1;
28026;PMS5003;15344;52.342;-1.290;2023-02-26T11:37:54;4;1;
28026;PMS5003;15344;52.342;-1.290;2023-02-26T11:40:21;3;1;
28026;PMS5003;15344;52.342;-1.290;2023-02-26T11:42:46;1;1;
28026;PMS5003;15344;52.342;-1.290;2023-02-26T11:45:12;5;0;
28026;PMS5003;15344;52.342;-1.290;2023-02-26T11:47:35;4;1;
28026;PMS5003;15344;52.342;-1.290;2023-02-26T11:50:01;4;2;
28026;PMS5003;15344;52.342;-1.290;2023-02-26T11:52:27;4;2;
28026;PMS5003;15344;52.342;-1.290;2023-02-26T11:54:53;5;2;
28026;PMS5003;15344;52.342;-1.290;2023-02-26T11:57:17;0;0;
28026;PMS5003;15344;52.342;-1.290;2023-02-26T11:59:43;4;2;
28026;PMS5003;15344;52.342;-1.290;2023-02-26T12:02:09;0;0;
28026;PMS5003;15344;52.342;-1.290;2023-02-26T12:04:33;1;1;
28026;PMS5003;15344;52.342;-1.290;2023-02-26T12:06:59;1;1;
28026;PMS5003;15344;52.342;-1.290;2023-02-26T12:09:24;0;0;
28026;PMS5003;15344;52.342;-1.290;2023-02-26T12:11:53;3;1;
28026;PMS5003;15344;52.342;-1.290;2023-02-26T12:14:21;2;1;
28026;PMS5003;15344;52.342;-1.290;2023-02-26T12:16:42;0;0;
28026;PMS5003;15344;52.342;-1.290;2023-02-26T12:19:07;1;1;
28026;PMS5003;15344;52.342;-1.290;2023-02-26T12:24:05;0;0;
28026;PMS5003;15344;52.342;-1.290;2023-02-26T12:26:24;1;1;
28026;PMS5003;15344;52.342;-1.290;2023-02-26T12:28:51;2;2;
28026;PMS5003;15344;52.342;-1.290;2023-02-26T12:33:41;4;0;
28026;PMS5003;15344;52.342;-1.290;2023-02-26T12:36:07;5;2;
28026;PMS5003;15344;52.342;-1.290;2023-02-26T12:38:32;4;1;
28026;PMS5003;15344;52.342;-1.290;2023-02-26T12:43:22;1;1;
28026;PMS5003;15344;52.342;-1.290;2023-02-26T12:45:49;2;1;
28026;PMS5003;15344;52.342;-1.290;2023-02-26T12:48:29;0;0;
28026;PMS5003;15344;52.342;-1.290;2023-02-26T12:50:40;3;1;
28026;PMS5003;15344;52.342;-1.290;2023-02-26T12:55:31;1;1;
28026;PMS5003;15344;52.342;-1.290;2023-02-26T12:57:58;1;1;
28026;PMS5003;15344;52.342;-1.290;2023-02-26T13:00:21;2;0;
28026;PMS5003;15344;52.342;-1.290;2023-02-26T13:05:13;3;1;
28026;PMS5003;15344;52.342;-1.290;2023-02-26T13:07:37;1;1;
28026;PMS5003;15344;52.342;-1.290;2023-02-26T13:10:02;0;0;
28026;PMS5003;15344;52.342;-1.290;2023-02-26T13:12:29;0;0;
28026;PMS5003;15344;52.342;-1.290;2023-02-26T13:14:53;1;1;
28026;PMS5003;15344;52.342;-1.290;2023-02-26T13:17:20;1;1;
28026;PMS5003;15344;52.342;-1.290;2023-02-26T13:19:43;1;1;
28026;PMS5003;15344;52.342;-1.290;2023-02-26T13:22:12;0;0;
28026;PMS5003;15344;52.342;-1.290;2023-02-26T13:24:34;3;1;
28026;PMS5003;15344;52.342;-1.290;2023-02-26T13:26:59;3;1;
28026;PMS5003;15344;52.342;-1.290;2023-02-26T13:29:26;0;0;
28026;PMS5003;15344;52.342;-1.290;2023-02-26T13:31:51;0;0;
28026;PMS5003;15344;52.342;-1.290;2023-02-26T13:34:16;1;1;
28026;PMS5003;15344;52.342;-1.290;2023-02-26T13:36:41;2;2;
28026;PMS5003;15344;52.342;-1.290;2023-02-26T13:39:10;5;0;
28026;PMS5003;15344;52.342;-1.290;2023-02-26T13:41:39;0;0;
28026;PMS5003;15344;52.342;-1.290;2023-02-26T13:44:03;0;0;
28026;PMS5003;15344;52.342;-1.290;2023-02-26T13:46:28;1;1;
28026;PMS5003;15344;52.342;-1.290;2023-02-26T13:48:50;2;0;
28026;PMS5003;15344;52.342;-1.290;2023-02-26T13:51:23;0;0;
28026;PMS5003;15344;52.342;-1.290;2023-02-26T13:56:05;2;2;
28026;PMS5003;15344;52.342;-1.290;2023-02-26T13:58:33;0;0;
28026;PMS5003;15344;52.342;-1.290;2023-02-26T14:00:57;0;0;
28026;PMS5003;15344;52.342;-1.290;2023-02-26T14:10:44;3;1;
28026;PMS5003;15344;52.342;-1.290;2023-02-26T14:13:07;1;1;
28026;PMS5003;15344;52.342;-1.290;2023-02-26T14:15:39;1;1;
28026;PMS5003;15344;52.342;-1.290;2023-02-26T14:20:22;2;0;
28026;PMS5003;15344;52.342;-1.290;2023-02-26T14:22:46;1;1;
28026;PMS5003;15344;52.342;-1.290;2023-02-26T14:25:12;1;1;
28026;PMS5003;15344;52.342;-1.290;2023-02-26T14:27:37;1;0;
28026;PMS5003;15344;52.342;-1.290;2023-02-26T14:30:11;0;0;
28026;PMS5003;15344;52.342;-1.290;2023-02-26T14:32:29;0;0;
28026;PMS5003;15344;52.342;-1.290;2023-02-26T14:34:53;0;0;
28026;PMS5003;15344;52.342;-1.290;2023-02-26T14:37:18;1;1;
28026;PMS5003;15344;52.342;-1.290;2023-02-26T14:39:44;0;0;
28026;PMS5003;15344;52.342;-1.290;2023-02-26T14:42:10;0;0;
28026;PMS5003;15344;52.342;-1.290;2023-02-26T14:44:36;0;0;
28026;PMS5003;15344;52.342;-1.290;2023-02-26T14:47:00;1;1;
28026;PMS5003;15344;52.342;-1.290;2023-02-26T14:49:26;1;0;
28026;PMS5003;15344;52.342;-1.290;2023-02-26T14:52:01;1;1;
28026;PMS5003;15344;52.342;-1.290;2023-02-26T14:54:21;2;0;
28026;PMS5003;15344;52.342;-1.290;2023-02-26T14:56:47;0;0;
28026;PMS5003;15344;52.342;-1.290;2023-02-26T14:59:14;0;0;
28026;PMS5003;15344;52.342;-1.290;2023-02-26T15:01:37;2;0;
28026;PMS5003;15344;52.342;-1.290;2023-02-26T15:04:03;0;0;
28026;PMS5003;15344;52.342;-1.290;2023-02-26T15:06:28;1;0;
28026;PMS5003;15344;52.342;-1.290;2023-02-26T15:08:53;1;1;
28026;PMS5003;15344;52.342;-1.290;2023-02-26T15:11:20;3;1;
28026;PMS5003;15344;52.342;-1.290;2023-02-26T15:13:48;0;0;
28026;PMS5003;15344;52.342;-1.290;2023-02-26T15:16:08;2;0;
28026;PMS5003;15344;52.342;-1.290;2023-02-26T15:18:37;1;1;
28026;PMS5003;15344;52.342;-1.290;2023-02-26T15:20:59;1;1;
28026;PMS5003;15344;52.342;-1.290;2023-02-26T15:23:26;0;0;
28026;PMS5003;15344;52.342;-1.290;2023-02-26T15:25:48;1;1;
28026;PMS5003;15344;52.342;-1.290;2023-02-26T15:28:17;1;1;
28026;PMS5003;15344;52.342;-1.290;2023-02-26T15:30:46;1;1;
28026;PMS5003;15344;52.342;-1.290;2023-02-26T15:33:06;0;0;
28026;PMS5003;15344;52.342;-1.290;2023-02-26T15:35:30;0;0;
28026;PMS5003;15344;52.342;-1.290;2023-02-26T15:37:56;2;2;
28026;PMS5003;15344;52.342;-1.290;2023-02-26T15:40:20;1;1;
28026;PMS5003;15344;52.342;-1.290;2023-02-26T15:42:47;1;1;
28026;PMS5003;15344;52.342;-1.290;2023-02-26T15:45:13;0;0;
28026;PMS5003;15344;52.342;-1.290;2023-02-26T15:47:37;1;0;
28026;PMS5003;15344;52.342;-1.290;2023-02-26T15:50:03;0;0;
28026;PMS5003;15344;52.342;-1.290;2023-02-26T15:52:28;2;0;
28026;PMS5003;15344;52.342;-1.290;2023-02-26T15:54:54;0;0;
28026;PMS5003;15344;52.342;-1.290;2023-02-26T15:57:19;0;0;
28026;PMS5003;15344;52.342;-1.290;2023-02-26T15:59:45;2;2;
28026;PMS5003;15344;52.342;-1.290;2023-02-26T16:02:10;1;1;
28026;PMS5003;15344;52.342;-1.290;2023-02-26T16:04:35;0;0;
28026;PMS5003;15344;52.342;-1.290;2023-02-26T16:07:01;3;1;
28026;PMS5003;15344;52.342;-1.290;2023-02-26T16:09:27;1;1;
28026;PMS5003;15344;52.342;-1.290;2023-02-26T16:11:52;0;0;
28026;PMS5003;15344;52.342;-1.290;2023-02-26T16:14:18;2;1;
28026;PMS5003;15344;52.342;-1.290;2023-02-26T16:16:43;2;0;
28026;PMS5003;15344;52.342;-1.290;2023-02-26T16:19:09;1;0;
28026;PMS5003;15344;52.342;-1.290;2023-02-26T16:21:34;1;1;
28026;PMS5003;15344;52.342;-1.290;2023-02-26T16:24:00;1;1;
28026;PMS5003;15344;52.342;-1.290;2023-02-26T16:26:26;2;2;
28026;PMS5003;15344;52.342;-1.290;2023-02-26T16:28:53;2;2;
28026;PMS5003;15344;52.342;-1.290;2023-02-26T16:31:17;1;1;
28026;PMS5003;15344;52.342;-1.290;2023-02-26T16:33:42;1;1;
28026;PMS5003;15344;52.342;-1.290;2023-02-26T16:36:11;3;0;
28026;PMS5003;15344;52.342;-1.290;2023-02-26T16:38:42;1;0;
28026;PMS5003;15344;52.342;-1.290;2023-02-26T16:40:59;0;0;
28026;PMS5003;15344;52.342;-1.290;2023-02-26T16:45:49;2;1;
28026;PMS5003;15344;52.342;-1.290;2023-02-26T16:48:16;2;1;
28026;PMS5003;15344;52.342;-1.290;2023-02-26T16:50:40;1;1;
28026;PMS5003;15344;52.342;-1.290;2023-02-26T16:53:06;2;1;
28026;PMS5003;15344;52.342;-1.290;2023-02-26T16:55:32;4;2;
28026;PMS5003;15344;52.342;-1.290;2023-02-26T16:57:56;2;0;